sensor_id;sensor_type;location;lat;lon;timestamp;temperature;humidity
13976;DHT22;7062;49.792;9.946;2022-12-29T00:02:04;9.80;99.90
13976;DHT22;7062;49.792;9.946;2022-12-29T00:04:30;9.80;99.90
13976;DHT22;7062;49.792;9.946;2022-12-29T00:06:56;9.80;99.90
13976;DHT22;7062;49.792;9.946;2022-12-29T00:09:22;9.80;99.90
13976;DHT22;7062;49.792;9.946;2022-12-29T00:11:47;9.80;99.90
13976;DHT22;7062;49.792;9.946;2022-12-29T00:14:13;9.90;99.90
13976;DHT22;7062;49.792;9.946;2022-12-29T00:16:58;9.80;99.90
13976;DHT22;7062;49.792;9.946;2022-12-29T00:19:23;9.90;99.90
13976;DHT22;7062;49.792;9.946;2022-12-29T00:22:12;9.80;99.90
13976;DHT22;7062;49.792;9.946;2022-12-29T00:24:56;9.90;99.90
13976;DHT22;7062;49.792;9.946;2022-12-29T00:27:40;9.90;99.90
13976;DHT22;7062;49.792;9.946;2022-12-29T00:30:24;9.90;99.90
13976;DHT22;7062;49.792;9.946;2022-12-29T00:33:14;9.90;99.90
13976;DHT22;7062;49.792;9.946;2022-12-29T00:38:36;10.00;99.90
13976;DHT22;7062;49.792;9.946;2022-12-29T00:41:21;10.00;99.90
13976;DHT22;7062;49.792;9.946;2022-12-29T00:44:07;10.20;99.90
13976;DHT22;7062;49.792;9.946;2022-12-29T00:46:34;10.00;99.90
13976;DHT22;7062;49.792;9.946;2022-12-29T00:49:00;10.00;99.90
13976;DHT22;7062;49.792;9.946;2022-12-29T00:51:45;10.00;99.90
13976;DHT22;7062;49.792;9.946;2022-12-29T00:54:12;10.00;99.90
13976;DHT22;7062;49.792;9.946;2022-12-29T00:56:37;9.90;99.90
13976;DHT22;7062;49.792;9.946;2022-12-29T00:59:05;9.90;99.90
13976;DHT22;7062;49.792;9.946;2022-12-29T01:01:30;10.00;99.90
13976;DHT22;7062;49.792;9.946;2022-12-29T01:03:56;10.00;99.90
13976;DHT22;7062;49.792;9.946;2022-12-29T01:06:22;9.90;99.90
13976;DHT22;7062;49.792;9.946;2022-12-29T01:08:48;9.90;99.90
13976;DHT22;7062;49.792;9.946;2022-12-29T01:11:34;9.90;99.90
13976;DHT22;7062;49.792;9.946;2022-12-29T01:13:59;9.90;99.90
13976;DHT22;7062;49.792;9.946;2022-12-29T01:16:25;10.00;99.90
13976;DHT22;7062;49.792;9.946;2022-12-29T01:18:50;10.00;99.90
13976;DHT22;7062;49.792;9.946;2022-12-29T01:21:16;10.00;99.90
13976;DHT22;7062;49.792;9.946;2022-12-29T01:23:42;10.00;99.90
13976;DHT22;7062;49.792;9.946;2022-12-29T01:26:15;10.00;99.90
13976;DHT22;7062;49.792;9.946;2022-12-29T01:28:41;10.00;99.90
13976;DHT22;7062;49.792;9.946;2022-12-29T01:31:08;10.10;99.90
13976;DHT22;7062;49.792;9.946;2022-12-29T01:33:34;10.10;99.90
13976;DHT22;7062;49.792;9.946;2022-12-29T01:36:03;10.10;99.90
13976;DHT22;7062;49.792;9.946;2022-12-29T01:38:30;10.10;99.90
13976;DHT22;7062;49.792;9.946;2022-12-29T01:40:55;10.10;99.90
13976;DHT22;7062;49.792;9.946;2022-12-29T01:43:21;10.10;99.90
13976;DHT22;7062;49.792;9.946;2022-12-29T01:45:54;10.00;99.90
13976;DHT22;7062;49.792;9.946;2022-12-29T01:48:19;10.00;99.90
13976;DHT22;7062;49.792;9.946;2022-12-29T01:50:50;10.00;99.90
13976;DHT22;7062;49.792;9.946;2022-12-29T01:53:25;9.90;99.90
13976;DHT22;7062;49.792;9.946;2022-12-29T01:55:55;10.00;99.90
13976;DHT22;7062;49.792;9.946;2022-12-29T01:58:24;10.00;99.90
13976;DHT22;7062;49.792;9.946;2022-12-29T02:00:52;10.00;99.90
13976;DHT22;7062;49.792;9.946;2022-12-29T02:03:19;10.10;99.90
13976;DHT22;7062;49.792;9.946;2022-12-29T02:06:01;10.20;99.90
13976;DHT22;7062;49.792;9.946;2022-12-29T02:08:29;10.30;99.90
13976;DHT22;7062;49.792;9.946;2022-12-29T02:10:56;10.30;99.90
13976;DHT22;7062;49.792;9.946;2022-12-29T02:13:24;10.40;99.90
13976;DHT22;7062;49.792;9.946;2022-12-29T02:33:54;10.60;99.90
13976;DHT22;7062;49.792;9.946;2022-12-29T02:50:23;10.30;99.90
13976;DHT22;7062;49.792;9.946;2022-12-29T02:52:57;10.30;99.90
13976;DHT22;7062;49.792;9.946;2022-12-29T02:55:23;10.20;99.90
13976;DHT22;7062;49.792;9.946;2022-12-29T03:15:02;10.10;99.90
13976;DHT22;7062;49.792;9.946;2022-12-29T03:18:24;10.10;99.90
13976;DHT22;7062;49.792;9.946;2022-12-29T03:21:17;10.00;99.90
13976;DHT22;7062;49.792;9.946;2022-12-29T03:23:43;10.00;99.90
13976;DHT22;7062;49.792;9.946;2022-12-29T03:26:14;10.00;99.90
13976;DHT22;7062;49.792;9.946;2022-12-29T03:28:47;10.00;99.90
13976;DHT22;7062;49.792;9.946;2022-12-29T03:31:14;10.00;99.90
13976;DHT22;7062;49.792;9.946;2022-12-29T03:33:41;10.00;99.90
13976;DHT22;7062;49.792;9.946;2022-12-29T03:36:11;10.00;99.90
13976;DHT22;7062;49.792;9.946;2022-12-29T03:38:49;10.10;99.90
13976;DHT22;7062;49.792;9.946;2022-12-29T03:41:19;10.10;99.90
13976;DHT22;7062;49.792;9.946;2022-12-29T03:43:46;10.10;99.90
13976;DHT22;7062;49.792;9.946;2022-12-29T03:46:11;10.20;99.90
13976;DHT22;7062;49.792;9.946;2022-12-29T03:48:37;10.10;99.90
13976;DHT22;7062;49.792;9.946;2022-12-29T03:51:03;10.10;99.90
13976;DHT22;7062;49.792;9.946;2022-12-29T03:53:28;10.20;99.90
13976;DHT22;7062;49.792;9.946;2022-12-29T03:55:54;10.10;99.90
13976;DHT22;7062;49.792;9.946;2022-12-29T03:58:19;10.20;99.90
13976;DHT22;7062;49.792;9.946;2022-12-29T04:00:45;10.30;99.90
13976;DHT22;7062;49.792;9.946;2022-12-29T04:03:10;10.20;99.90
13976;DHT22;7062;49.792;9.946;2022-12-29T04:05:36;10.30;99.90
13976;DHT22;7062;49.792;9.946;2022-12-29T04:08:02;10.30;99.90
13976;DHT22;7062;49.792;9.946;2022-12-29T04:10:27;10.40;99.90
13976;DHT22;7062;49.792;9.946;2022-12-29T04:12:53;10.50;99.90
13976;DHT22;7062;49.792;9.946;2022-12-29T04:15:18;10.50;99.90
13976;DHT22;7062;49.792;9.946;2022-12-29T04:17:44;10.60;99.90
13976;DHT22;7062;49.792;9.946;2022-12-29T04:20:10;10.60;99.90
13976;DHT22;7062;49.792;9.946;2022-12-29T04:23:02;10.60;99.90
13976;DHT22;7062;49.792;9.946;2022-12-29T04:25:28;10.60;99.90
13976;DHT22;7062;49.792;9.946;2022-12-29T04:27:53;10.60;99.90
13976;DHT22;7062;49.792;9.946;2022-12-29T04:30:19;10.60;99.90
13976;DHT22;7062;49.792;9.946;2022-12-29T04:32:44;10.60;99.90
13976;DHT22;7062;49.792;9.946;2022-12-29T04:35:10;10.60;99.90
13976;DHT22;7062;49.792;9.946;2022-12-29T04:37:35;10.60;99.90
13976;DHT22;7062;49.792;9.946;2022-12-29T04:40:01;10.60;99.90
13976;DHT22;7062;49.792;9.946;2022-12-29T04:42:27;10.60;99.90
13976;DHT22;7062;49.792;9.946;2022-12-29T04:44:52;10.70;99.90
13976;DHT22;7062;49.792;9.946;2022-12-29T04:47:18;10.80;99.90
13976;DHT22;7062;49.792;9.946;2022-12-29T04:49:43;10.80;99.90
13976;DHT22;7062;49.792;9.946;2022-12-29T04:52:09;10.80;99.90
13976;DHT22;7062;49.792;9.946;2022-12-29T04:54:34;10.70;99.90
13976;DHT22;7062;49.792;9.946;2022-12-29T04:57:00;10.60;99.90
13976;DHT22;7062;49.792;9.946;2022-12-29T04:59:26;10.50;99.90
13976;DHT22;7062;49.792;9.946;2022-12-29T05:01:51;10.60;99.90
13976;DHT22;7062;49.792;9.946;2022-12-29T05:04:17;10.70;99.90
13976;DHT22;7062;49.792;9.946;2022-12-29T05:06:42;10.60;99.90
13976;DHT22;7062;49.792;9.946;2022-12-29T05:09:08;10.70;99.90
13976;DHT22;7062;49.792;9.946;2022-12-29T05:11:34;10.70;99.90
13976;DHT22;7062;49.792;9.946;2022-12-29T05:13:59;10.70;99.90
13976;DHT22;7062;49.792;9.946;2022-12-29T05:16:25;10.70;99.90
13976;DHT22;7062;49.792;9.946;2022-12-29T05:18:51;10.60;99.90
13976;DHT22;7062;49.792;9.946;2022-12-29T05:21:16;10.60;99.90
13976;DHT22;7062;49.792;9.946;2022-12-29T05:23:42;10.70;99.90
13976;DHT22;7062;49.792;9.946;2022-12-29T05:26:07;10.60;99.90
13976;DHT22;7062;49.792;9.946;2022-12-29T05:28:33;10.60;99.90
13976;DHT22;7062;49.792;9.946;2022-12-29T05:30:59;10.60;99.90
13976;DHT22;7062;49.792;9.946;2022-12-29T05:33:24;10.60;99.90
13976;DHT22;7062;49.792;9.946;2022-12-29T05:35:50;10.60;99.90
13976;DHT22;7062;49.792;9.946;2022-12-29T05:38:15;11.30;99.90
13976;DHT22;7062;49.792;9.946;2022-12-29T05:40:41;10.60;99.90
13976;DHT22;7062;49.792;9.946;2022-12-29T05:43:06;10.60;99.90
13976;DHT22;7062;49.792;9.946;2022-12-29T05:45:32;10.60;99.90
13976;DHT22;7062;49.792;9.946;2022-12-29T05:47:57;10.70;99.90
13976;DHT22;7062;49.792;9.946;2022-12-29T05:50:23;10.70;99.90
13976;DHT22;7062;49.792;9.946;2022-12-29T05:52:49;10.70;99.90
13976;DHT22;7062;49.792;9.946;2022-12-29T05:55:14;10.70;99.90
13976;DHT22;7062;49.792;9.946;2022-12-29T05:57:40;10.70;99.90
13976;DHT22;7062;49.792;9.946;2022-12-29T06:00:06;10.70;99.90
13976;DHT22;7062;49.792;9.946;2022-12-29T06:02:32;10.70;99.90
13976;DHT22;7062;49.792;9.946;2022-12-29T06:04:58;10.70;99.90
13976;DHT22;7062;49.792;9.946;2022-12-29T06:07:23;10.80;99.90
13976;DHT22;7062;49.792;9.946;2022-12-29T06:09:49;10.80;99.90
13976;DHT22;7062;49.792;9.946;2022-12-29T06:12:15;10.80;99.90
13976;DHT22;7062;49.792;9.946;2022-12-29T06:14:40;10.90;99.90
13976;DHT22;7062;49.792;9.946;2022-12-29T06:17:06;11.00;99.90
13976;DHT22;7062;49.792;9.946;2022-12-29T06:19:31;11.00;99.90
13976;DHT22;7062;49.792;9.946;2022-12-29T06:21:57;11.00;99.90
13976;DHT22;7062;49.792;9.946;2022-12-29T06:24:22;10.90;99.90
13976;DHT22;7062;49.792;9.946;2022-12-29T06:26:48;11.00;99.90
13976;DHT22;7062;49.792;9.946;2022-12-29T06:29:14;11.00;99.90
13976;DHT22;7062;49.792;9.946;2022-12-29T06:31:44;11.00;99.90
13976;DHT22;7062;49.792;9.946;2022-12-29T06:34:11;11.30;99.90
13976;DHT22;7062;49.792;9.946;2022-12-29T06:36:37;11.00;99.90
13976;DHT22;7062;49.792;9.946;2022-12-29T06:39:03;11.00;99.90
13976;DHT22;7062;49.792;9.946;2022-12-29T06:41:28;11.10;99.90
13976;DHT22;7062;49.792;9.946;2022-12-29T06:43:54;11.10;99.90
13976;DHT22;7062;49.792;9.946;2022-12-29T06:46:20;11.20;99.90
13976;DHT22;7062;49.792;9.946;2022-12-29T06:48:45;11.30;99.90
13976;DHT22;7062;49.792;9.946;2022-12-29T06:51:11;11.30;99.90
13976;DHT22;7062;49.792;9.946;2022-12-29T06:53:37;11.30;99.90
13976;DHT22;7062;49.792;9.946;2022-12-29T06:56:02;11.40;99.90
13976;DHT22;7062;49.792;9.946;2022-12-29T06:58:28;11.40;99.90
13976;DHT22;7062;49.792;9.946;2022-12-29T07:00:54;11.40;99.90
13976;DHT22;7062;49.792;9.946;2022-12-29T07:03:19;11.50;99.90
13976;DHT22;7062;49.792;9.946;2022-12-29T07:05:45;11.50;99.90
13976;DHT22;7062;49.792;9.946;2022-12-29T07:08:10;11.60;99.90
13976;DHT22;7062;49.792;9.946;2022-12-29T07:10:36;11.60;99.90
13976;DHT22;7062;49.792;9.946;2022-12-29T07:13:02;11.60;99.90
13976;DHT22;7062;49.792;9.946;2022-12-29T07:15:27;11.60;99.90
13976;DHT22;7062;49.792;9.946;2022-12-29T07:17:53;11.60;99.90
13976;DHT22;7062;49.792;9.946;2022-12-29T07:20:19;11.60;99.90
13976;DHT22;7062;49.792;9.946;2022-12-29T07:22:44;11.60;99.90
13976;DHT22;7062;49.792;9.946;2022-12-29T07:25:10;11.60;99.90
13976;DHT22;7062;49.792;9.946;2022-12-29T07:27:35;11.60;99.90
13976;DHT22;7062;49.792;9.946;2022-12-29T07:30:01;11.60;99.90
13976;DHT22;7062;49.792;9.946;2022-12-29T07:32:27;11.50;99.90
13976;DHT22;7062;49.792;9.946;2022-12-29T07:34:52;11.50;99.90
13976;DHT22;7062;49.792;9.946;2022-12-29T07:37:18;11.50;99.90
13976;DHT22;7062;49.792;9.946;2022-12-29T07:39:44;11.50;99.90
13976;DHT22;7062;49.792;9.946;2022-12-29T07:42:09;11.50;99.90
13976;DHT22;7062;49.792;9.946;2022-12-29T07:44:35;11.50;99.90
13976;DHT22;7062;49.792;9.946;2022-12-29T07:47:02;11.40;99.90
13976;DHT22;7062;49.792;9.946;2022-12-29T07:49:28;11.50;99.90
13976;DHT22;7062;49.792;9.946;2022-12-29T07:51:53;11.50;99.90
13976;DHT22;7062;49.792;9.946;2022-12-29T07:54:19;11.50;99.90
13976;DHT22;7062;49.792;9.946;2022-12-29T07:56:45;11.50;99.90
13976;DHT22;7062;49.792;9.946;2022-12-29T07:59:11;11.50;99.90
13976;DHT22;7062;49.792;9.946;2022-12-29T08:01:37;11.50;99.90
13976;DHT22;7062;49.792;9.946;2022-12-29T08:04:03;11.50;99.90
13976;DHT22;7062;49.792;9.946;2022-12-29T08:06:29;11.50;99.90
13976;DHT22;7062;49.792;9.946;2022-12-29T08:08:56;11.60;99.90
13976;DHT22;7062;49.792;9.946;2022-12-29T08:11:22;11.60;99.90
13976;DHT22;7062;49.792;9.946;2022-12-29T08:13:47;11.70;99.90
13976;DHT22;7062;49.792;9.946;2022-12-29T08:16:13;11.80;99.90
13976;DHT22;7062;49.792;9.946;2022-12-29T08:18:39;11.80;99.90
13976;DHT22;7062;49.792;9.946;2022-12-29T08:21:05;11.80;99.90
13976;DHT22;7062;49.792;9.946;2022-12-29T08:23:31;11.80;99.90
13976;DHT22;7062;49.792;9.946;2022-12-29T08:26:01;11.80;99.90
13976;DHT22;7062;49.792;9.946;2022-12-29T08:28:28;11.80;99.90
13976;DHT22;7062;49.792;9.946;2022-12-29T08:30:56;11.80;99.90
13976;DHT22;7062;49.792;9.946;2022-12-29T08:33:22;11.80;99.90
13976;DHT22;7062;49.792;9.946;2022-12-29T08:35:48;11.80;99.90
13976;DHT22;7062;49.792;9.946;2022-12-29T08:38:14;11.90;99.90
13976;DHT22;7062;49.792;9.946;2022-12-29T08:40:40;11.90;99.90
13976;DHT22;7062;49.792;9.946;2022-12-29T08:43:05;11.90;99.90
13976;DHT22;7062;49.792;9.946;2022-12-29T08:45:31;12.00;99.90
13976;DHT22;7062;49.792;9.946;2022-12-29T08:47:57;12.00;99.90
13976;DHT22;7062;49.792;9.946;2022-12-29T08:50:23;12.10;99.90
13976;DHT22;7062;49.792;9.946;2022-12-29T08:52:48;12.10;99.90
13976;DHT22;7062;49.792;9.946;2022-12-29T08:55:14;12.20;99.90
13976;DHT22;7062;49.792;9.946;2022-12-29T08:57:40;12.20;99.90
13976;DHT22;7062;49.792;9.946;2022-12-29T09:00:06;12.20;99.90
13976;DHT22;7062;49.792;9.946;2022-12-29T09:02:32;12.20;99.90
13976;DHT22;7062;49.792;9.946;2022-12-29T09:04:57;12.30;99.90
13976;DHT22;7062;49.792;9.946;2022-12-29T09:07:24;12.20;99.90
13976;DHT22;7062;49.792;9.946;2022-12-29T09:09:49;12.20;99.90
13976;DHT22;7062;49.792;9.946;2022-12-29T09:12:16;12.20;99.90
13976;DHT22;7062;49.792;9.946;2022-12-29T09:14:42;12.30;99.90
13976;DHT22;7062;49.792;9.946;2022-12-29T09:17:09;12.30;99.90
13976;DHT22;7062;49.792;9.946;2022-12-29T09:19:54;12.30;99.90
13976;DHT22;7062;49.792;9.946;2022-12-29T09:22:20;12.40;99.90
13976;DHT22;7062;49.792;9.946;2022-12-29T09:24:45;12.50;99.90
13976;DHT22;7062;49.792;9.946;2022-12-29T09:27:11;12.60;99.90
13976;DHT22;7062;49.792;9.946;2022-12-29T09:29:37;12.60;99.90
13976;DHT22;7062;49.792;9.946;2022-12-29T09:32:02;12.80;99.90
13976;DHT22;7062;49.792;9.946;2022-12-29T09:34:28;12.90;99.90
13976;DHT22;7062;49.792;9.946;2022-12-29T09:36:53;13.00;99.90
13976;DHT22;7062;49.792;9.946;2022-12-29T09:39:21;13.10;99.90
13976;DHT22;7062;49.792;9.946;2022-12-29T09:42:08;13.10;99.90
13976;DHT22;7062;49.792;9.946;2022-12-29T09:44:48;13.10;99.90
13976;DHT22;7062;49.792;9.946;2022-12-29T09:47:15;13.10;99.90
13976;DHT22;7062;49.792;9.946;2022-12-29T09:50:19;13.20;99.90
13976;DHT22;7062;49.792;9.946;2022-12-29T09:52:52;13.20;99.90
13976;DHT22;7062;49.792;9.946;2022-12-29T09:55:23;13.20;99.90
13976;DHT22;7062;49.792;9.946;2022-12-29T09:57:58;13.20;99.90
13976;DHT22;7062;49.792;9.946;2022-12-29T10:00:54;13.20;99.90
13976;DHT22;7062;49.792;9.946;2022-12-29T10:03:25;13.20;99.90
13976;DHT22;7062;49.792;9.946;2022-12-29T10:05:58;13.20;99.90
13976;DHT22;7062;49.792;9.946;2022-12-29T10:22:12;13.60;99.90
13976;DHT22;7062;49.792;9.946;2022-12-29T10:24:42;13.80;99.90
13976;DHT22;7062;49.792;9.946;2022-12-29T10:27:13;13.90;99.90
13976;DHT22;7062;49.792;9.946;2022-12-29T10:29:45;14.00;99.90
13976;DHT22;7062;49.792;9.946;2022-12-29T10:34:55;14.20;99.90
13976;DHT22;7062;49.792;9.946;2022-12-29T10:39:55;16.00;99.90
13976;DHT22;7062;49.792;9.946;2022-12-29T10:42:26;15.60;99.90
13976;DHT22;7062;49.792;9.946;2022-12-29T10:44:54;15.80;99.90
13976;DHT22;7062;49.792;9.946;2022-12-29T10:47:24;16.90;99.90
13976;DHT22;7062;49.792;9.946;2022-12-29T10:49:51;19.30;99.90
13976;DHT22;7062;49.792;9.946;2022-12-29T10:52:19;20.20;99.90
13976;DHT22;7062;49.792;9.946;2022-12-29T10:57:39;21.50;99.90
13976;DHT22;7062;49.792;9.946;2022-12-29T11:00:12;19.20;99.90
13976;DHT22;7062;49.792;9.946;2022-12-29T11:05:26;20.40;99.90
13976;DHT22;7062;49.792;9.946;2022-12-29T11:08:02;22.40;99.90
13976;DHT22;7062;49.792;9.946;2022-12-29T11:10:37;22.70;99.90
13976;DHT22;7062;49.792;9.946;2022-12-29T11:13:18;21.90;99.90
13976;DHT22;7062;49.792;9.946;2022-12-29T11:15:48;18.70;99.90
13976;DHT22;7062;49.792;9.946;2022-12-29T11:20:55;15.70;99.90
13976;DHT22;7062;49.792;9.946;2022-12-29T11:26:18;15.60;99.90
13976;DHT22;7062;49.792;9.946;2022-12-29T11:31:47;14.70;99.90
13976;DHT22;7062;49.792;9.946;2022-12-29T11:34:33;14.40;99.90
13976;DHT22;7062;49.792;9.946;2022-12-29T11:37:05;14.30;99.90
13976;DHT22;7062;49.792;9.946;2022-12-29T11:42:41;14.30;99.90
13976;DHT22;7062;49.792;9.946;2022-12-29T11:45:23;14.10;99.90
13976;DHT22;7062;49.792;9.946;2022-12-29T11:47:52;14.30;99.90
13976;DHT22;7062;49.792;9.946;2022-12-29T11:50:22;14.30;99.90
13976;DHT22;7062;49.792;9.946;2022-12-29T11:52:56;14.10;99.90
13976;DHT22;7062;49.792;9.946;2022-12-29T11:55:24;14.10;99.90
13976;DHT22;7062;49.792;9.946;2022-12-29T11:57:52;14.00;99.90
13976;DHT22;7062;49.792;9.946;2022-12-29T12:00:21;14.10;99.90
13976;DHT22;7062;49.792;9.946;2022-12-29T12:05:41;14.00;99.90
13976;DHT22;7062;49.792;9.946;2022-12-29T12:08:34;14.00;99.90
13976;DHT22;7062;49.792;9.946;2022-12-29T12:11:06;14.00;99.90
13976;DHT22;7062;49.792;9.946;2022-12-29T12:13:52;14.20;99.90
13976;DHT22;7062;49.792;9.946;2022-12-29T12:16:40;14.20;99.90
13976;DHT22;7062;49.792;9.946;2022-12-29T12:22:01;14.10;99.90
13976;DHT22;7062;49.792;9.946;2022-12-29T12:24:49;14.10;99.90
13976;DHT22;7062;49.792;9.946;2022-12-29T12:27:31;14.00;99.90
13976;DHT22;7062;49.792;9.946;2022-12-29T12:30:05;14.00;99.90
13976;DHT22;7062;49.792;9.946;2022-12-29T12:33:05;14.10;99.90
13976;DHT22;7062;49.792;9.946;2022-12-29T12:35:48;14.00;99.90
13976;DHT22;7062;49.792;9.946;2022-12-29T12:38:39;13.90;99.90
13976;DHT22;7062;49.792;9.946;2022-12-29T12:41:25;13.90;99.90
13976;DHT22;7062;49.792;9.946;2022-12-29T12:49:41;13.90;99.90
13976;DHT22;7062;49.792;9.946;2022-12-29T12:52:46;14.00;99.90
13976;DHT22;7062;49.792;9.946;2022-12-29T12:55:42;14.20;99.90
13976;DHT22;7062;49.792;9.946;2022-12-29T13:01:11;14.50;99.90
13976;DHT22;7062;49.792;9.946;2022-12-29T13:10:16;14.30;99.90
13976;DHT22;7062;49.792;9.946;2022-12-29T13:23:17;14.20;99.90
13976;DHT22;7062;49.792;9.946;2022-12-29T13:25:58;14.00;99.90
13976;DHT22;7062;49.792;9.946;2022-12-29T13:31:28;13.80;99.90
13976;DHT22;7062;49.792;9.946;2022-12-29T13:36:52;13.40;99.90
13976;DHT22;7062;49.792;9.946;2022-12-29T13:39:33;13.30;99.90
13976;DHT22;7062;49.792;9.946;2022-12-29T13:42:01;13.30;99.90
13976;DHT22;7062;49.792;9.946;2022-12-29T13:49:52;13.50;99.90
13976;DHT22;7062;49.792;9.946;2022-12-29T13:52:29;13.40;99.90
13976;DHT22;7062;49.792;9.946;2022-12-29T13:55:49;13.40;99.90
13976;DHT22;7062;49.792;9.946;2022-12-29T14:00:22;13.40;99.90
13976;DHT22;7062;49.792;9.946;2022-12-29T14:05:45;13.30;99.90
13976;DHT22;7062;49.792;9.946;2022-12-29T14:08:27;13.40;99.90
13976;DHT22;7062;49.792;9.946;2022-12-29T14:10:53;13.30;99.90
13976;DHT22;7062;49.792;9.946;2022-12-29T14:13:21;13.30;99.90
13976;DHT22;7062;49.792;9.946;2022-12-29T14:16:06;13.20;99.90
13976;DHT22;7062;49.792;9.946;2022-12-29T14:18:34;13.20;99.90
13976;DHT22;7062;49.792;9.946;2022-12-29T14:23:45;13.40;99.90
13976;DHT22;7062;49.792;9.946;2022-12-29T14:28:53;13.20;99.90
13976;DHT22;7062;49.792;9.946;2022-12-29T14:37:03;13.00;99.90
13976;DHT22;7062;49.792;9.946;2022-12-29T14:39:41;13.00;99.90
13976;DHT22;7062;49.792;9.946;2022-12-29T14:45:06;12.90;99.90
13976;DHT22;7062;49.792;9.946;2022-12-29T14:47:40;12.90;99.90
13976;DHT22;7062;49.792;9.946;2022-12-29T14:57:46;12.80;99.90
13976;DHT22;7062;49.792;9.946;2022-12-29T15:00:21;12.70;99.90
13976;DHT22;7062;49.792;9.946;2022-12-29T15:03:21;12.70;99.90
13976;DHT22;7062;49.792;9.946;2022-12-29T15:05:54;12.70;99.90
13976;DHT22;7062;49.792;9.946;2022-12-29T15:08:33;12.60;99.90
13976;DHT22;7062;49.792;9.946;2022-12-29T15:11:09;12.40;99.90
13976;DHT22;7062;49.792;9.946;2022-12-29T15:13:40;12.30;99.90
13976;DHT22;7062;49.792;9.946;2022-12-29T15:16:30;12.20;99.90
13976;DHT22;7062;49.792;9.946;2022-12-29T15:18:57;12.10;99.90
13976;DHT22;7062;49.792;9.946;2022-12-29T15:21:33;12.00;99.90
13976;DHT22;7062;49.792;9.946;2022-12-29T15:23:59;11.70;99.90
13976;DHT22;7062;49.792;9.946;2022-12-29T15:26:44;11.70;99.90
13976;DHT22;7062;49.792;9.946;2022-12-29T15:31:55;11.40;99.90
13976;DHT22;7062;49.792;9.946;2022-12-29T15:34:21;11.30;99.90
13976;DHT22;7062;49.792;9.946;2022-12-29T15:36:50;11.30;99.90
13976;DHT22;7062;49.792;9.946;2022-12-29T15:39:35;11.20;99.90
13976;DHT22;7062;49.792;9.946;2022-12-29T15:45:13;11.10;99.90
13976;DHT22;7062;49.792;9.946;2022-12-29T15:47:41;11.00;99.90
13976;DHT22;7062;49.792;9.946;2022-12-29T15:50:32;10.90;99.90
13976;DHT22;7062;49.792;9.946;2022-12-29T15:52:59;10.90;99.90
13976;DHT22;7062;49.792;9.946;2022-12-29T15:57:58;10.80;99.90
13976;DHT22;7062;49.792;9.946;2022-12-29T16:00:33;10.60;99.90
13976;DHT22;7062;49.792;9.946;2022-12-29T16:03:01;10.60;99.90
13976;DHT22;7062;49.792;9.946;2022-12-29T16:05:35;10.50;99.90
13976;DHT22;7062;49.792;9.946;2022-12-29T16:08:01;10.40;99.90
13976;DHT22;7062;49.792;9.946;2022-12-29T16:10:32;10.40;99.90
13976;DHT22;7062;49.792;9.946;2022-12-29T16:13:23;10.40;99.90
13976;DHT22;7062;49.792;9.946;2022-12-29T16:15:54;10.40;99.90
13976;DHT22;7062;49.792;9.946;2022-12-29T16:18:25;10.50;99.90
13976;DHT22;7062;49.792;9.946;2022-12-29T16:20:53;10.50;99.90
13976;DHT22;7062;49.792;9.946;2022-12-29T16:23:25;10.50;99.90
13976;DHT22;7062;49.792;9.946;2022-12-29T16:25:54;10.60;99.90
13976;DHT22;7062;49.792;9.946;2022-12-29T16:28:23;10.50;99.90
13976;DHT22;7062;49.792;9.946;2022-12-29T16:31:23;10.60;99.90
13976;DHT22;7062;49.792;9.946;2022-12-29T16:33:53;10.40;99.90
13976;DHT22;7062;49.792;9.946;2022-12-29T16:36:22;10.50;99.90
13976;DHT22;7062;49.792;9.946;2022-12-29T16:38:48;10.50;99.90
13976;DHT22;7062;49.792;9.946;2022-12-29T16:41:29;10.40;99.90
13976;DHT22;7062;49.792;9.946;2022-12-29T16:44:17;10.30;99.90
13976;DHT22;7062;49.792;9.946;2022-12-29T16:47:03;10.30;99.90
13976;DHT22;7062;49.792;9.946;2022-12-29T16:49:31;10.20;99.90
13976;DHT22;7062;49.792;9.946;2022-12-29T16:51:57;10.20;99.90
13976;DHT22;7062;49.792;9.946;2022-12-29T16:54:34;10.20;99.90
13976;DHT22;7062;49.792;9.946;2022-12-29T16:57:01;10.20;99.90
13976;DHT22;7062;49.792;9.946;2022-12-29T16:59:31;10.10;99.90
13976;DHT22;7062;49.792;9.946;2022-12-29T17:01:59;10.10;99.90
13976;DHT22;7062;49.792;9.946;2022-12-29T17:04:26;10.00;99.90
13976;DHT22;7062;49.792;9.946;2022-12-29T17:06:54;10.10;99.90
13976;DHT22;7062;49.792;9.946;2022-12-29T17:09:25;10.00;99.90
13976;DHT22;7062;49.792;9.946;2022-12-29T17:11:56;10.10;99.90
13976;DHT22;7062;49.792;9.946;2022-12-29T17:17:37;10.00;99.90
13976;DHT22;7062;49.792;9.946;2022-12-29T17:22:35;10.10;99.90
13976;DHT22;7062;49.792;9.946;2022-12-29T17:25:01;10.10;99.90
13976;DHT22;7062;49.792;9.946;2022-12-29T17:27:37;10.10;99.90
13976;DHT22;7062;49.792;9.946;2022-12-29T17:30:13;10.10;99.90
13976;DHT22;7062;49.792;9.946;2022-12-29T17:32:40;10.10;99.90
13976;DHT22;7062;49.792;9.946;2022-12-29T17:35:12;10.20;99.90
13976;DHT22;7062;49.792;9.946;2022-12-29T17:37:37;10.20;99.90
13976;DHT22;7062;49.792;9.946;2022-12-29T17:40:06;10.20;99.90
13976;DHT22;7062;49.792;9.946;2022-12-29T17:42:32;10.20;99.90
13976;DHT22;7062;49.792;9.946;2022-12-29T17:45:03;10.20;99.90
13976;DHT22;7062;49.792;9.946;2022-12-29T17:47:29;10.20;99.90
13976;DHT22;7062;49.792;9.946;2022-12-29T17:49:54;10.10;99.90
13976;DHT22;7062;49.792;9.946;2022-12-29T17:52:20;10.10;99.90
13976;DHT22;7062;49.792;9.946;2022-12-29T17:54:51;10.00;99.90
13976;DHT22;7062;49.792;9.946;2022-12-29T17:57:19;10.00;99.90
13976;DHT22;7062;49.792;9.946;2022-12-29T17:59:44;9.90;99.90
13976;DHT22;7062;49.792;9.946;2022-12-29T18:02:28;9.90;99.90
13976;DHT22;7062;49.792;9.946;2022-12-29T18:04:56;10.00;99.90
13976;DHT22;7062;49.792;9.946;2022-12-29T18:07:25;9.90;99.90
13976;DHT22;7062;49.792;9.946;2022-12-29T18:09:50;9.90;99.90
13976;DHT22;7062;49.792;9.946;2022-12-29T18:12:38;9.90;99.90
13976;DHT22;7062;49.792;9.946;2022-12-29T18:15:09;9.90;99.90
13976;DHT22;7062;49.792;9.946;2022-12-29T18:17:40;9.90;99.90
13976;DHT22;7062;49.792;9.946;2022-12-29T18:20:06;9.90;99.90
13976;DHT22;7062;49.792;9.946;2022-12-29T18:22:32;9.90;99.90
13976;DHT22;7062;49.792;9.946;2022-12-29T18:24:57;10.00;99.90
13976;DHT22;7062;49.792;9.946;2022-12-29T18:27:23;9.90;99.90
13976;DHT22;7062;49.792;9.946;2022-12-29T18:29:49;10.00;99.90
13976;DHT22;7062;49.792;9.946;2022-12-29T18:32:15;10.40;99.90
13976;DHT22;7062;49.792;9.946;2022-12-29T18:34:41;9.90;99.90
13976;DHT22;7062;49.792;9.946;2022-12-29T18:37:08;9.90;99.90
13976;DHT22;7062;49.792;9.946;2022-12-29T18:39:34;9.90;99.90
13976;DHT22;7062;49.792;9.946;2022-12-29T18:42:02;9.90;99.90
13976;DHT22;7062;49.792;9.946;2022-12-29T18:44:28;9.90;99.90
13976;DHT22;7062;49.792;9.946;2022-12-29T18:46:54;9.90;99.90
13976;DHT22;7062;49.792;9.946;2022-12-29T18:49:20;9.90;99.90
13976;DHT22;7062;49.792;9.946;2022-12-29T18:51:46;10.00;99.90
13976;DHT22;7062;49.792;9.946;2022-12-29T18:54:31;10.00;99.90
13976;DHT22;7062;49.792;9.946;2022-12-29T18:56:58;10.00;99.90
13976;DHT22;7062;49.792;9.946;2022-12-29T18:59:24;10.00;99.90